Time;durP1;ratioP1;P1;durP2;ratioP2;P2;SDS_P1;SDS_P2;PMS_P1;PMS_P2;Temp;Humidity;BMP_temperature;BMP_pressure;BME280_temperature;BME280_humidity;BME280_pressure;Samples;Min_cycle;Max_cycle;Signal;HPM_P1;HPM_P2
2023/03/24 00:00:40;;;;;;;0.60;0.60;;;11.80;99.90;;;;;;5057840;28;20049;-80
2023/03/24 00:03:07;;;;;;;0.60;0.60;;;11.80;99.90;;;;;;5046829;28;20059;-81
2023/03/24 00:05:33;;;;;;;0.60;0.60;;;11.80;99.90;;;;;;5047236;28;20170;-81
2023/03/24 00:08:01;;;;;;;0.60;0.60;;;11.70;99.90;;;;;;5030508;28;20755;-80
2023/03/24 00:10:29;;;;;;;0.60;0.60;;;11.70;99.90;;;;;;5031310;28;20044;-81
2023/03/24 00:12:57;;;;;;;0.60;0.60;;;11.70;99.90;;;;;;5033695;28;20056;-81
2023/03/24 00:15:23;;;;;;;0.60;0.60;;;11.70;99.90;;;;;;5030652;28;20498;-80
2023/03/24 00:17:49;;;;;;;0.50;0.50;;;11.80;99.90;;;;;;5037262;28;20482;-81
2023/03/24 00:20:17;;;;;;;0.57;0.57;;;11.80;99.90;;;;;;5055887;28;20094;-80
2023/03/24 00:22:50;;;;;;;0.60;0.60;;;11.70;99.90;;;;;;5058582;28;20048;-80
2023/03/24 00:25:26;;;;;;;0.68;0.68;;;11.80;99.90;;;;;;5053473;28;20051;-81
2023/03/24 00:27:54;;;;;;;0.60;0.60;;;11.70;99.90;;;;;;5035862;28;20906;-80
2023/03/24 00:30:20;;;;;;;0.50;0.50;;;11.70;99.90;;;;;;5049707;28;20463;-80
2023/03/24 00:32:46;;;;;;;0.60;0.60;;;11.70;99.90;;;;;;5065270;28;20052;-81
2023/03/24 00:35:15;;;;;;;0.60;0.60;;;11.80;99.90;;;;;;5066212;28;20059;-80
2023/03/24 00:37:43;;;;;;;0.60;0.60;;;11.70;99.90;;;;;;5062834;28;20052;-79
2023/03/24 00:40:17;;;;;;;0.60;0.60;;;11.70;99.90;;;;;;5045430;28;20162;-81
2023/03/24 00:42:45;;;;;;;0.57;0.57;;;11.70;99.90;;;;;;5064937;28;20087;-80
2023/03/24 00:45:16;;;;;;;0.60;0.60;;;11.70;99.90;;;;;;5065112;28;20044;-81
2023/03/24 00:47:43;;;;;;;0.60;0.60;;;11.70;99.90;;;;;;5050696;28;20461;-79
2023/03/24 00:50:13;;;;;;;0.57;0.57;;;11.70;99.90;;;;;;5063152;28;20040;-81
2023/03/24 00:52:43;;;;;;;0.50;0.50;;;11.80;99.90;;;;;;5068039;28;20036;-81
2023/03/24 00:55:14;;;;;;;0.60;0.60;;;11.70;99.90;;;;;;5049128;28;20048;-80
2023/03/24 00:57:48;;;;;;;0.60;0.60;;;11.80;99.90;;;;;;5048748;28;20050;-80
2023/03/24 01:00:19;;;;;;;0.60;0.60;;;11.90;99.90;;;;;;5046760;28;20055;-80
2023/03/24 01:02:47;;;;;;;0.50;0.50;;;11.80;99.90;;;;;;5063282;28;20044;-79
2023/03/24 01:05:13;;;;;;;0.60;0.60;;;11.90;99.90;;;;;;5065614;28;20052;-82
2023/03/24 01:07:40;;;;;;;0.60;0.60;;;11.80;99.90;;;;;;5064268;28;20115;-80
2023/03/24 01:10:13;;;;;;;0.50;0.50;;;11.80;99.90;;;;;;5060184;28;20060;-79
2023/03/24 01:12:39;;;;;;;0.50;0.50;;;11.80;99.90;;;;;;5047071;28;20047;-80
2023/03/24 01:15:12;;;;;;;0.50;0.50;;;11.90;99.90;;;;;;5063717;28;20293;-80
2023/03/24 01:17:37;;;;;;;0.60;0.60;;;11.90;99.90;;;;;;5066745;28;20042;-79
2023/03/24 01:20:07;;;;;;;0.50;0.50;;;11.80;99.90;;;;;;5045814;28;20561;-80
2023/03/24 01:22:36;;;;;;;0.50;0.50;;;11.80;99.90;;;;;;5035862;28;20044;-79
2023/03/24 01:25:08;;;;;;;0.57;0.57;;;11.80;99.90;;;;;;5050191;28;20125;-79
2023/03/24 01:27:35;;;;;;;0.50;0.50;;;11.90;99.90;;;;;;5048342;28;20062;-80
2023/03/24 01:30:06;;;;;;;0.50;0.50;;;11.90;99.90;;;;;;5075556;28;20481;-81
2023/03/24 01:32:32;;;;;;;0.50;0.50;;;11.90;99.90;;;;;;5062014;28;20273;-80
2023/03/24 01:34:58;;;;;;;0.60;0.60;;;12.00;99.90;;;;;;5045507;28;20048;-80
2023/03/24 01:37:24;;;;;;;0.50;0.50;;;12.00;99.90;;;;;;5068075;28;20036;-80
2023/03/24 01:39:50;;;;;;;0.50;0.50;;;11.90;99.90;;;;;;5066000;28;20501;-80
2023/03/24 01:42:19;;;;;;;0.50;0.50;;;12.00;99.90;;;;;;5070739;28;20413;-80
2023/03/24 01:44:46;;;;;;;0.50;0.50;;;11.90;99.90;;;;;;5070699;28;20071;-82
2023/03/24 01:47:12;;;;;;;0.60;0.60;;;12.00;99.90;;;;;;5070360;28;20043;-80
2023/03/24 01:49:44;;;;;;;0.50;0.50;;;11.90;99.90;;;;;;5073763;28;20094;-80
2023/03/24 01:52:14;;;;;;;0.50;0.50;;;11.90;99.90;;;;;;5068697;28;20500;-79
2023/03/24 01:54:53;;;;;;;0.60;0.60;;;11.90;99.90;;;;;;5067955;28;20044;-79
2023/03/24 01:57:34;;;;;;;0.50;0.50;;;12.10;99.90;;;;;;5071154;28;20048;-79
2023/03/24 02:00:04;;;;;;;0.60;0.60;;;11.90;99.90;;;;;;5070539;28;20139;-82
2023/03/24 02:02:33;;;;;;;0.50;0.50;;;12.00;99.90;;;;;;5049533;28;20048;-81
2023/03/24 02:05:04;;;;;;;0.50;0.50;;;12.10;99.90;;;;;;5057045;28;20488;-79
2023/03/24 02:07:57;;;;;;;0.50;0.50;;;11.90;99.90;;;;;;5074142;28;20036;-80
2023/03/24 02:10:24;;;;;;;0.50;0.50;;;12.00;99.90;;;;;;5069669;28;21129;-78
2023/03/24 02:12:50;;;;;;;0.50;0.50;;;12.10;99.90;;;;;;5073045;28;20060;-80
2023/03/24 02:15:18;;;;;;;0.50;0.50;;;12.00;99.90;;;;;;5069528;28;20048;-81
2023/03/24 02:17:56;;;;;;;0.50;0.50;;;12.10;99.90;;;;;;5055036;28;20058;-80
2023/03/24 02:20:29;;;;;;;0.50;0.50;;;12.00;99.90;;;;;;5074662;28;20098;-79
2023/03/24 02:23:42;;;;;;;0.50;0.50;;;12.20;99.90;;;;;;5066156;28;20043;-79
2023/03/24 02:26:39;;;;;;;0.50;0.50;;;12.10;99.90;;;;;;5063118;28;20103;-81
2023/03/24 02:29:49;;;;;;;0.50;0.50;;;12.10;99.90;;;;;;5072500;28;20436;-79
2023/03/24 02:32:36;;;;;;;0.50;0.50;;;12.20;99.90;;;;;;5056389;28;20052;-79
2023/03/24 02:35:21;;;;;;;0.50;0.50;;;12.20;99.90;;;;;;5072778;28;20048;-80
2023/03/24 02:37:53;;;;;;;0.50;0.50;;;12.30;99.90;;;;;;5040696;28;20048;-78
2023/03/24 02:40:44;;;;;;;0.50;0.50;;;12.20;99.90;;;;;;5046275;28;20052;-79
2023/03/24 02:43:31;;;;;;;0.50;0.50;;;12.30;99.90;;;;;;5064919;28;20044;-80
2023/03/24 02:46:25;;;;;;;0.50;0.50;;;12.30;99.90;;;;;;5070003;28;20059;-80
2023/03/24 02:49:20;;;;;;;0.50;0.50;;;12.20;99.90;;;;;;5055384;28;20094;-79
2023/03/24 02:52:24;;;;;;;0.50;0.50;;;12.30;99.90;;;;;;5052336;28;20032;-79
2023/03/24 02:55:32;;;;;;;0.50;0.50;;;12.30;99.90;;;;;;5057764;28;20044;-79
2023/03/24 02:58:04;;;;;;;0.50;0.50;;;12.30;99.90;;;;;;5074990;28;20098;-79
2023/03/24 03:00:45;;;;;;;0.50;0.50;;;12.30;99.90;;;;;;5074411;28;20048;-81
2023/03/24 03:03:28;;;;;;;0.52;0.52;;;12.30;99.90;;;;;;5075867;28;20127;-79
2023/03/24 03:05:58;;;;;;;0.60;0.60;;;12.30;99.90;;;;;;5052830;28;20674;-80
2023/03/24 03:08:27;;;;;;;0.50;0.50;;;12.30;99.90;;;;;;5073823;28;20044;-80
2023/03/24 03:10:56;;;;;;;0.50;0.50;;;12.30;99.90;;;;;;5075970;28;20040;-79
2023/03/24 03:13:36;;;;;;;0.60;0.60;;;12.30;99.90;;;;;;5055523;28;20055;-79
2023/03/24 03:16:33;;;;;;;0.57;0.57;;;12.30;99.90;;;;;;5074713;28;20043;-79
2023/03/24 03:19:03;;;;;;;0.60;0.60;;;12.20;99.90;;;;;;5072366;28;20043;-79
2023/03/24 03:21:34;;;;;;;0.50;0.50;;;12.20;99.90;;;;;;5076065;28;20105;-79
2023/03/24 03:24:05;;;;;;;0.60;0.60;;;12.30;99.90;;;;;;5072159;28;20135;-79
2023/03/24 03:26:32;;;;;;;0.60;0.60;;;12.30;99.90;;;;;;5076184;28;20052;-78
2023/03/24 03:29:04;;;;;;;0.60;0.60;;;12.30;99.90;;;;;;5057534;28;20048;-79
2023/03/24 03:31:44;;;;;;;0.50;0.50;;;12.30;99.90;;;;;;5073188;28;20048;-80
2023/03/24 03:34:21;;;;;;;0.50;0.50;;;12.30;99.90;;;;;;5052681;28;20095;-80
2023/03/24 03:37:08;;;;;;;0.60;0.60;;;12.30;99.90;;;;;;5057903;28;20051;-80
2023/03/24 03:39:44;;;;;;;0.50;0.50;;;12.40;99.90;;;;;;5051019;28;20051;-79
2023/03/24 03:42:10;;;;;;;0.50;0.50;;;12.30;99.90;;;;;;5056181;28;20056;-79
2023/03/24 03:44:36;;;;;;;0.60;0.60;;;12.40;99.90;;;;;;5055769;28;20130;-79
2023/03/24 03:47:02;;;;;;;0.60;0.60;;;12.30;99.90;;;;;;5059881;28;20142;-79
2023/03/24 03:49:28;;;;;;;0.60;0.60;;;12.30;99.90;;;;;;5075673;28;20047;-80
2023/03/24 03:51:54;;;;;;;0.50;0.50;;;12.30;99.90;;;;;;5073612;28;20042;-80
2023/03/24 03:54:22;;;;;;;0.60;0.60;;;12.40;99.90;;;;;;5071422;28;20401;-80
2023/03/24 03:56:49;;;;;;;0.60;0.60;;;12.30;99.90;;;;;;5074068;28;20590;-80
2023/03/24 03:59:24;;;;;;;0.50;0.50;;;12.30;99.90;;;;;;5057994;28;20055;-79
2023/03/24 04:01:50;;;;;;;0.60;0.60;;;12.40;99.90;;;;;;5073242;28;20052;-80
2023/03/24 04:04:25;;;;;;;0.60;0.60;;;12.30;99.90;;;;;;5071533;28;20493;-81
2023/03/24 04:07:06;;;;;;;0.60;0.60;;;12.40;99.90;;;;;;5056709;28;20171;-81
2023/03/24 04:09:39;;;;;;;0.52;0.52;;;12.30;99.90;;;;;;5074227;28;20056;-82
2023/03/24 04:12:24;;;;;;;0.50;0.50;;;12.40;99.90;;;;;;5075092;28;20039;-81
2023/03/24 04:15:08;;;;;;;0.60;0.60;;;12.30;99.90;;;;;;5055771;28;20455;-79
2023/03/24 04:17:45;;;;;;;0.60;0.60;;;12.30;99.90;;;;;;5076149;28;20036;-79
2023/03/24 04:20:24;;;;;;;0.50;0.50;;;12.20;99.90;;;;;;5055551;28;20043;-79
2023/03/24 04:23:13;;;;;;;0.60;0.60;;;12.20;99.90;;;;;;5075087;28;20579;-79
2023/03/24 04:26:25;;;;;;;0.60;0.60;;;12.00;99.90;;;;;;5057001;28;20109;-77
2023/03/24 04:29:02;;;;;;;0.60;0.60;;;12.00;99.90;;;;;;5059109;28;20051;-81
2023/03/24 04:31:36;;;;;;;0.50;0.50;;;11.90;99.90;;;;;;5055538;28;20055;-79
2023/03/24 04:34:12;;;;;;;0.60;0.60;;;11.80;99.90;;;;;;5074451;28;20709;-79
2023/03/24 04:36:49;;;;;;;0.60;0.60;;;11.70;99.90;;;;;;5072653;28;20117;-79
2023/03/24 04:39:26;;;;;;;0.60;0.60;;;11.60;99.90;;;;;;5074666;28;20131;-80
2023/03/24 04:41:55;;;;;;;0.60;0.60;;;11.60;99.90;;;;;;5074294;28;20048;-79
2023/03/24 04:44:22;;;;;;;0.60;0.60;;;11.50;99.90;;;;;;5055982;28;20055;-79
2023/03/24 04:46:50;;;;;;;0.60;0.60;;;11.40;99.90;;;;;;5074503;28;20052;-78
2023/03/24 04:49:18;;;;;;;0.60;0.60;;;11.30;99.90;;;;;;5076097;28;20093;-77
2023/03/24 04:51:44;;;;;;;0.60;0.60;;;11.20;99.90;;;;;;5060479;28;20039;-80
2023/03/24 04:54:10;;;;;;;0.60;0.60;;;11.20;99.90;;;;;;5078667;28;20113;-79
2023/03/24 04:56:46;;;;;;;0.60;0.60;;;11.20;99.90;;;;;;5079848;28;20138;-79
2023/03/24 04:59:14;;;;;;;0.60;0.60;;;11.10;99.90;;;;;;5077042;28;20043;-80
2023/03/24 05:01:40;;;;;;;0.60;0.60;;;11.10;99.90;;;;;;5075586;28;20036;-80
2023/03/24 05:04:07;;;;;;;0.60;0.60;;;11.00;99.90;;;;;;5078548;28;20064;-79
2023/03/24 05:06:33;;;;;;;0.50;0.50;;;11.00;99.90;;;;;;5059639;28;20125;-80
2023/03/24 05:08:59;;;;;;;0.60;0.60;;;10.90;99.90;;;;;;5055346;28;20132;-79
2023/03/24 05:11:26;;;;;;;0.60;0.60;;;10.90;99.90;;;;;;5073693;28;20036;-79
2023/03/24 05:13:53;;;;;;;0.52;0.52;;;10.80;99.90;;;;;;5072189;28;20071;-80
2023/03/24 05:16:19;;;;;;;0.60;0.60;;;10.90;99.90;;;;;;5069669;28;20060;-79
2023/03/24 05:18:45;;;;;;;0.50;0.50;;;10.90;99.90;;;;;;5049700;28;20143;-79
2023/03/24 05:21:11;;;;;;;0.60;0.60;;;10.90;99.90;;;;;;5067381;28;20044;-80
2023/03/24 05:23:37;;;;;;;0.60;0.60;;;10.80;99.90;;;;;;5054455;28;20760;-79
2023/03/24 05:26:04;;;;;;;0.60;0.60;;;10.80;99.90;;;;;;5060338;28;20056;-79
2023/03/24 05:28:29;;;;;;;0.50;0.50;;;10.70;99.90;;;;;;5055262;28;20799;-79
2023/03/24 05:30:55;;;;;;;0.60;0.60;;;10.70;99.90;;;;;;5072306;28;20113;-79
2023/03/24 05:33:21;;;;;;;0.60;0.60;;;10.60;99.90;;;;;;5058212;28;20040;-80
2023/03/24 05:35:47;;;;;;;0.60;0.60;;;10.50;99.90;;;;;;5057668;28;20048;-80
2023/03/24 05:38:13;;;;;;;0.60;0.60;;;10.50;99.90;;;;;;5073700;28;20040;-79
2023/03/24 05:40:38;;;;;;;0.60;0.60;;;10.50;99.90;;;;;;5053422;28;20060;-80
2023/03/24 05:43:05;;;;;;;0.60;0.60;;;10.60;99.90;;;;;;5069241;28;20058;-79
2023/03/24 05:45:30;;;;;;;0.60;0.60;;;10.60;99.90;;;;;;5054836;28;20057;-78
2023/03/24 05:47:56;;;;;;;0.60;0.60;;;10.60;99.90;;;;;;5050858;28;20601;-79
2023/03/24 05:50:24;;;;;;;0.50;0.50;;;10.60;99.90;;;;;;5069161;28;20047;-81
2023/03/24 05:52:51;;;;;;;0.60;0.60;;;10.60;99.90;;;;;;5071586;28;20056;-79
2023/03/24 05:55:18;;;;;;;0.60;0.60;;;10.50;99.90;;;;;;5068097;28;20528;-81
2023/03/24 05:57:44;;;;;;;0.60;0.60;;;10.50;99.90;;;;;;5056502;28;20048;-80
2023/03/24 06:00:15;;;;;;;0.60;0.60;;;10.40;99.90;;;;;;5055762;28;20052;-80
2023/03/24 06:02:41;;;;;;;0.60;0.60;;;10.30;99.90;;;;;;5075780;28;20051;-80
2023/03/24 06:05:08;;;;;;;0.60;0.60;;;10.30;99.90;;;;;;5051380;28;20076;-80
2023/03/24 06:07:34;;;;;;;0.60;0.60;;;10.20;99.90;;;;;;5073625;28;20046;-80
2023/03/24 06:10:01;;;;;;;0.60;0.60;;;10.20;99.90;;;;;;5075173;28;20513;-80
2023/03/24 06:12:29;;;;;;;0.60;0.60;;;10.30;99.90;;;;;;5054555;28;20119;-79
2023/03/24 06:14:55;;;;;;;0.60;0.60;;;10.40;99.90;;;;;;5043513;28;20619;-80
2023/03/24 06:17:21;;;;;;;0.60;0.60;;;10.60;99.90;;;;;;5046929;28;20080;-80
2023/03/24 06:19:49;;;;;;;0.60;0.60;;;10.70;99.90;;;;;;5073048;28;20048;-79
2023/03/24 06:22:16;;;;;;;0.60;0.60;;;10.80;99.90;;;;;;5049918;28;20751;-79
2023/03/24 06:24:43;;;;;;;0.60;0.60;;;10.70;99.90;;;;;;5057578;28;20051;-80
2023/03/24 06:27:10;;;;;;;0.60;0.60;;;10.60;99.90;;;;;;5061681;28;20048;-78
2023/03/24 06:29:36;;;;;;;0.50;0.50;;;10.80;99.90;;;;;;5064507;28;20044;-79
2023/03/24 06:32:04;;;;;;;0.60;0.60;;;10.90;99.90;;;;;;5060734;28;20544;-80
2023/03/24 06:34:31;;;;;;;0.60;0.60;;;10.90;99.90;;;;;;5041124;28;20056;-83
2023/03/24 06:36:56;;;;;;;0.60;0.60;;;10.90;99.90;;;;;;5029659;28;20058;-80
2023/03/24 06:39:22;;;;;;;0.55;0.55;;;10.90;99.90;;;;;;5062328;28;20040;-78
2023/03/24 06:41:48;;;;;;;0.60;0.60;;;10.80;99.90;;;;;;5063347;28;20059;-79
2023/03/24 06:44:14;;;;;;;0.60;0.60;;;10.80;99.90;;;;;;5047349;28;20478;-79
2023/03/24 06:46:40;;;;;;;0.60;0.60;;;10.80;99.90;;;;;;5064160;28;20036;-79
2023/03/24 06:49:06;;;;;;;0.60;0.60;;;10.90;99.90;;;;;;5065657;28;20113;-80
2023/03/24 06:51:32;;;;;;;0.60;0.60;;;10.80;99.90;;;;;;5042932;28;20405;-80
2023/03/24 06:53:58;;;;;;;0.60;0.60;;;10.80;99.90;;;;;;5060869;28;20078;-78
2023/03/24 06:56:23;;;;;;;0.60;0.60;;;10.90;99.90;;;;;;5043396;28;20113;-80
2023/03/24 06:58:50;;;;;;;0.60;0.60;;;10.90;99.90;;;;;;5057463;28;20509;-79
2023/03/24 07:01:16;;;;;;;0.55;0.55;;;10.80;99.90;;;;;;5061955;28;20059;-79
2023/03/24 07:03:42;;;;;;;0.60;0.60;;;10.90;99.90;;;;;;5033422;28;20040;-78
2023/03/24 07:06:08;;;;;;;0.60;0.60;;;10.90;99.90;;;;;;5072463;28;20048;-80
2023/03/24 07:08:35;;;;;;;0.60;0.60;;;11.00;99.90;;;;;;5053251;28;20541;-77
2023/03/24 07:11:01;;;;;;;0.60;0.60;;;11.10;99.90;;;;;;5049963;28;20047;-79
2023/03/24 07:13:27;;;;;;;0.60;0.60;;;11.20;99.90;;;;;;5075382;28;20058;-79
2023/03/24 07:15:53;;;;;;;0.60;0.60;;;11.10;99.90;;;;;;5057165;28;20789;-77
2023/03/24 07:18:18;;;;;;;0.60;0.60;;;11.10;99.90;;;;;;5059743;28;20047;-79
2023/03/24 07:20:45;;;;;;;0.60;0.60;;;11.10;99.90;;;;;;5078820;28;20538;-79
2023/03/24 07:23:11;;;;;;;0.60;0.60;;;11.10;99.90;;;;;;5060443;28;20055;-79
2023/03/24 07:25:39;;;;;;;0.60;0.60;;;11.10;99.90;;;;;;5059351;28;20044;-78
2023/03/24 07:28:05;;;;;;;0.60;0.60;;;11.20;99.90;;;;;;5058472;28;20441;-79
2023/03/24 07:30:31;;;;;;;0.60;0.60;;;11.10;99.90;;;;;;5076797;28;20039;-79
2023/03/24 07:32:57;;;;;;;0.60;0.60;;;11.10;99.90;;;;;;5077990;28;20097;-77
2023/03/24 07:35:22;;;;;;;0.60;0.60;;;11.10;99.90;;;;;;5078235;28;20151;-78
2023/03/24 07:37:49;;;;;;;0.60;0.60;;;11.10;99.90;;;;;;5078347;28;20044;-79
2023/03/24 07:40:15;;;;;;;0.60;0.60;;;11.10;99.90;;;;;;5078878;28;20135;-78
2023/03/24 07:42:42;;;;;;;0.65;0.65;;;11.00;99.90;;;;;;5073535;28;20043;-78
2023/03/24 07:45:10;;;;;;;0.60;0.60;;;11.10;99.90;;;;;;5078062;28;20081;-78
2023/03/24 07:47:37;;;;;;;0.60;0.60;;;11.00;99.90;;;;;;5078987;28;20127;-79
2023/03/24 07:50:08;;;;;;;0.60;0.60;;;11.10;99.90;;;;;;5075949;28;20048;-78
2023/03/24 07:52:39;;;;;;;0.60;0.60;;;11.10;99.90;;;;;;5056514;28;20085;-78
2023/03/24 07:55:07;;;;;;;0.60;0.60;;;11.20;99.90;;;;;;5077419;28;20147;-79
2023/03/24 07:57:36;;;;;;;0.60;0.60;;;11.30;99.90;;;;;;5078211;28;20054;-78
2023/03/24 08:00:16;;;;;;;0.60;0.60;;;11.40;99.90;;;;;;5076164;28;20043;-78
2023/03/24 08:02:50;;;;;;;0.60;0.60;;;11.40;99.90;;;;;;5060360;28;20051;-79
2023/03/24 08:05:18;;;;;;;0.60;0.60;;;11.40;99.90;;;;;;5078893;28;20047;-79
2023/03/24 08:07:52;;;;;;;0.60;0.60;;;11.40;99.90;;;;;;5079338;28;20052;-78
2023/03/24 08:10:22;;;;;;;;;;;11.40;99.90;;;;;;5075073;28;20036;-80
2023/03/24 08:12:48;;;;;;;0.60;0.60;;;11.50;99.90;;;;;;5059642;28;19974;-76
2023/03/24 08:15:14;;;;;;;0.60;0.60;;;11.50;99.90;;;;;;5076490;28;20203;-78
2023/03/24 08:17:40;;;;;;;0.60;0.60;;;11.50;99.90;;;;;;5075556;28;20494;-77
2023/03/24 08:20:13;;;;;;;0.60;0.60;;;11.60;99.90;;;;;;5075532;28;20046;-79
2023/03/24 08:22:41;;;;;;;0.60;0.60;;;11.80;99.90;;;;;;5056843;28;20063;-78
2023/03/24 08:25:07;;;;;;;0.60;0.60;;;11.80;99.90;;;;;;5080728;28;20086;-78
2023/03/24 08:27:33;;;;;;;0.60;0.60;;;12.00;99.90;;;;;;5079781;28;20428;-78
2023/03/24 08:29:59;;;;;;;0.55;0.55;;;12.10;99.90;;;;;;5060466;28;20138;-78
2023/03/24 08:32:25;;;;;;;0.60;0.60;;;12.10;99.90;;;;;;5063514;28;20411;-78
2023/03/24 08:34:51;;;;;;;0.60;0.60;;;12.40;99.90;;;;;;5081371;28;20036;-77
2023/03/24 08:37:16;;;;;;;0.50;0.50;;;12.80;99.90;;;;;;5063083;28;20044;-79
2023/03/24 08:39:42;;;;;;;0.50;0.50;;;13.10;99.90;;;;;;5063783;28;20397;-79
2023/03/24 08:42:08;;;;;;;0.60;0.60;;;13.30;99.90;;;;;;5060523;28;20093;-78
2023/03/24 08:44:33;;;;;;;0.50;0.50;;;13.30;99.90;;;;;;5063352;28;20123;-79
2023/03/24 08:47:02;;;;;;;0.50;0.50;;;13.10;99.90;;;;;;5076473;28;20063;-78
2023/03/24 08:49:28;;;;;;;0.50;0.50;;;13.10;99.90;;;;;;5078451;28;20130;-79
2023/03/24 08:51:54;;;;;;;0.52;0.52;;;13.20;99.90;;;;;;5073024;28;20412;-77
2023/03/24 08:54:22;;;;;;;0.50;0.50;;;13.00;99.90;;;;;;5073556;28;20048;-80
2023/03/24 08:56:48;;;;;;;0.50;0.50;;;12.70;99.90;;;;;;5055666;28;20048;-77
2023/03/24 08:59:13;;;;;;;0.50;0.50;;;12.60;99.90;;;;;;5075835;28;20819;-79
2023/03/24 09:01:39;;;;;;;0.50;0.50;;;13.10;99.90;;;;;;5071514;28;20043;-78
2023/03/24 09:04:05;;;;;;;0.50;0.50;;;13.30;99.90;;;;;;5055191;28;20409;-79
2023/03/24 09:06:31;;;;;;;0.50;0.50;;;13.50;99.90;;;;;;5068123;28;20158;-78
2023/03/24 09:08:57;;;;;;;0.50;0.50;;;13.70;99.90;;;;;;5050449;28;20089;-78
2023/03/24 09:11:23;;;;;;;0.50;0.50;;;13.80;99.90;;;;;;5070609;28;20633;-78
2023/03/24 09:13:49;;;;;;;0.50;0.50;;;14.30;99.90;;;;;;5059149;28;20052;-80
2023/03/24 09:16:16;;;;;;;0.50;0.50;;;14.70;99.90;;;;;;5080387;28;20446;-77
2023/03/24 09:18:42;;;;;;;0.50;0.50;;;14.80;99.90;;;;;;5062976;28;20122;-78
2023/03/24 09:21:08;;;;;;;0.50;0.50;;;14.90;99.90;;;;;;5079733;28;20048;-78
2023/03/24 09:23:34;;;;;;;0.50;0.50;;;14.90;99.90;;;;;;5077676;28;20040;-77
2023/03/24 09:26:02;;;;;;;0.50;0.50;;;15.20;99.90;;;;;;5080569;28;20040;-78
2023/03/24 09:28:28;;;;;;;0.50;0.50;;;15.30;99.90;;;;;;5079094;28;20048;-77
2023/03/24 09:30:58;;;;;;;0.50;0.50;;;15.50;99.90;;;;;;5081174;28;20051;-77
2023/03/24 09:33:24;;;;;;;0.50;0.50;;;15.60;99.90;;;;;;5075654;28;20040;-81
2023/03/24 09:35:59;;;;;;;0.50;0.50;;;15.40;99.90;;;;;;5044695;28;20106;-78
2023/03/24 09:38:25;;;;;;;0.50;0.50;;;15.40;99.90;;;;;;5062155;28;20044;-80
2023/03/24 09:40:59;;;;;;;0.50;0.50;;;15.30;99.90;;;;;;5079292;28;20086;-77
2023/03/24 09:43:42;;;;;;;0.50;0.50;;;15.30;99.90;;;;;;5078610;28;20032;-77
2023/03/24 09:46:25;;;;;;;0.50;0.50;;;15.10;99.90;;;;;;5075700;28;20040;-78
2023/03/24 09:48:56;;;;;;;0.50;0.50;;;15.20;99.90;;;;;;5059603;28;20105;-80
2023/03/24 09:51:26;;;;;;;0.50;0.50;;;15.30;99.90;;;;;;5079233;28;20109;-79
2023/03/24 09:54:18;;;;;;;0.50;0.50;;;15.30;99.90;;;;;;5075830;28;20040;-76
2023/03/24 09:56:45;;;;;;;0.50;0.50;;;14.90;99.90;;;;;;5062704;28;20048;-78
2023/03/24 09:59:14;;;;;;;0.50;0.50;;;15.10;99.90;;;;;;5075928;28;20374;-78
2023/03/24 10:01:39;;;;;;;0.50;0.50;;;15.00;99.90;;;;;;5060587;28;20048;-77
2023/03/24 10:04:14;;;;;;;0.50;0.50;;;14.90;99.90;;;;;;5078355;28;20047;-79
2023/03/24 10:06:41;;;;;;;0.50;0.50;;;14.80;99.90;;;;;;5061704;28;20044;-79
2023/03/24 10:09:21;;;;;;;0.50;0.50;;;15.00;99.90;;;;;;5056867;28;20082;-77
2023/03/24 10:11:54;;;;;;;0.50;0.50;;;14.90;99.90;;;;;;5077822;28;20048;-78
2023/03/24 10:14:23;;;;;;;0.50;0.50;;;14.90;99.90;;;;;;5079455;28;20040;-77
2023/03/24 10:17:42;;;;;;;0.50;0.50;;;14.80;99.90;;;;;;5078077;28;20044;-78
2023/03/24 10:20:36;;;;;;;0.50;0.50;;;14.90;99.90;;;;;;5016178;28;20068;-77
2023/03/24 10:23:05;;;;;;;0.57;0.57;;;15.10;99.90;;;;;;5076442;28;20087;-77
2023/03/24 10:25:30;;;;;;;0.50;0.50;;;15.10;99.90;;;;;;5078189;28;20052;-78
2023/03/24 10:28:07;;;;;;;0.50;0.50;;;15.20;99.90;;;;;;5080638;28;20067;-77
2023/03/24 10:30:38;;;;;;;0.50;0.50;;;15.40;99.90;;;;;;5079681;28;20048;-76
2023/03/24 10:33:04;;;;;;;0.50;0.50;;;15.00;99.90;;;;;;5060333;28;20537;-75
2023/03/24 10:35:36;;;;;;;0.50;0.50;;;15.30;99.90;;;;;;5079359;28;20126;-75
2023/03/24 10:38:08;;;;;;;0.50;0.50;;;15.30;99.90;;;;;;5058842;28;20052;-78
2023/03/24 10:40:33;;;;;;;0.50;0.50;;;15.60;99.90;;;;;;5077296;28;20513;-80
2023/03/24 10:43:02;;;;;;;0.50;0.50;;;15.40;99.90;;;;;;5079524;28;20040;-80
2023/03/24 10:45:32;;;;;;;0.50;0.50;;;15.50;99.90;;;;;;5044069;28;20390;-79
2023/03/24 10:48:01;;;;;;;0.50;0.50;;;15.60;99.90;;;;;;5076462;28;20052;-77
2023/03/24 10:50:29;;;;;;;0.50;0.50;;;15.40;99.90;;;;;;5058382;28;20043;-77
2023/03/24 10:52:55;;;;;;;0.50;0.50;;;15.50;99.90;;;;;;5077033;28;20036;-78
2023/03/24 10:55:28;;;;;;;0.50;0.50;;;15.40;99.90;;;;;;5077731;28;20115;-77
2023/03/24 10:57:57;;;;;;;0.50;0.50;;;15.40;99.90;;;;;;5077041;28;20048;-78
2023/03/24 11:00:25;;;;;;;0.50;0.50;;;15.60;99.90;;;;;;5079084;28;20646;-78
2023/03/24 11:03:05;;;;;;;0.50;0.50;;;15.50;99.90;;;;;;5078517;28;20044;-79
2023/03/24 11:05:34;;;;;;;0.50;0.50;;;15.70;99.90;;;;;;5077078;28;20040;-77
2023/03/24 11:08:17;;;;;;;0.50;0.50;;;15.80;99.90;;;;;;5077921;28;20055;-80
2023/03/24 11:10:43;;;;;;;0.50;0.50;;;15.60;99.90;;;;;;5078086;28;20044;-78
2023/03/24 11:13:22;;;;;;;0.50;0.50;;;15.90;99.90;;;;;;5075426;28;20150;-77
2023/03/24 11:15:55;;;;;;;0.50;0.50;;;15.80;99.90;;;;;;5075636;28;20047;-78
2023/03/24 11:18:21;;;;;;;0.50;0.50;;;15.90;99.90;;;;;;5076957;28;20047;-77
2023/03/24 11:20:58;;;;;;;0.50;0.50;;;15.80;99.90;;;;;;5076301;28;20130;-78
2023/03/24 11:23:30;;;;;;;0.50;0.50;;;16.00;99.90;;;;;;5076266;28;20397;-77
2023/03/24 11:26:22;;;;;;;0.40;0.40;;;16.50;99.90;;;;;;5058781;28;20048;-79
2023/03/24 11:28:54;;;;;;;0.50;0.50;;;16.00;99.90;;;;;;5074968;28;20043;-78
2023/03/24 11:31:33;;;;;;;0.50;0.50;;;15.80;99.90;;;;;;5074602;28;20058;-77
2023/03/24 11:34:01;;;;;;;0.50;0.50;;;16.00;99.90;;;;;;5072791;28;20075;-76
2023/03/24 11:36:31;;;;;;;0.50;0.50;;;16.00;99.90;;;;;;5053064;28;20590;-78
2023/03/24 11:39:12;;;;;;;0.50;0.50;;;16.50;99.90;;;;;;5066487;28;20131;-78
2023/03/24 11:41:42;;;;;;;0.50;0.50;;;16.70;99.90;;;;;;5066303;28;20520;-77
2023/03/24 11:44:21;;;;;;;0.50;0.50;;;16.70;99.90;;;;;;5070236;28;20095;-78
2023/03/24 11:46:53;;;;;;;0.50;0.50;;;16.90;99.90;;;;;;5053627;28;20059;-77
2023/03/24 11:49:24;;;;;;;0.50;0.50;;;17.00;99.90;;;;;;5071513;28;20040;-77
2023/03/24 11:51:53;;;;;;;0.50;0.50;;;16.10;99.90;;;;;;5071180;28;20048;-79
2023/03/24 11:54:23;;;;;;;0.50;0.50;;;16.80;99.90;;;;;;5051886;28;20052;-77
2023/03/24 11:57:04;;;;;;;0.50;0.50;;;16.70;99.90;;;;;;5074834;28;20048;-77
2023/03/24 11:59:51;;;;;;;0.50;0.50;;;16.80;99.90;;;;;;5080741;28;20036;-77
2023/03/24 12:02:44;;;;;;;0.50;0.50;;;16.20;99.90;;;;;;5075545;28;20550;-77
2023/03/24 12:05:13;;;;;;;0.60;0.60;;;16.20;99.90;;;;;;5080830;28;20160;-77
2023/03/24 12:07:50;;;;;;;0.50;0.50;;;15.80;99.90;;;;;;5084754;28;20043;-79
2023/03/24 12:11:10;;;;;;;0.60;0.60;;;15.30;99.90;;;;;;5065350;28;20072;-79
2023/03/24 12:13:43;;;;;;;0.60;0.60;;;16.00;99.90;;;;;;5051395;28;20085;-79
2023/03/24 12:16:53;;;;;;;0.60;0.60;;;16.40;99.90;;;;;;5078630;28;20074;-79
2023/03/24 12:19:46;;;;;;;0.50;0.50;;;16.70;99.90;;;;;;5045304;28;20064;-77
2023/03/24 12:22:27;;;;;;;0.60;0.60;;;16.90;99.90;;;;;;5060123;28;20036;-78
2023/03/24 12:25:06;;;;;;;0.60;0.60;;;16.90;99.90;;;;;;5082476;28;20190;-79
2023/03/24 12:27:53;;;;;;;0.52;0.52;;;17.00;99.90;;;;;;5047528;28;20051;-79
2023/03/24 12:30:44;;;;;;;0.50;0.50;;;17.00;99.90;;;;;;5063267;28;20059;-79
2023/03/24 12:33:24;;;;;;;0.50;0.50;;;17.20;99.90;;;;;;5081884;28;20063;-78
2023/03/24 12:36:14;;;;;;;0.60;0.60;;;16.90;99.90;;;;;;5081391;28;20077;-78
2023/03/24 12:39:00;;;;;;;0.60;0.60;;;16.30;99.90;;;;;;5082367;28;20054;-80
2023/03/24 12:41:47;;;;;;;0.70;0.70;;;15.80;99.90;;;;;;5077082;28;20123;-77
2023/03/24 12:44:36;;;;;;;0.65;0.65;;;15.40;99.90;;;;;;5082639;28;20527;-78
2023/03/24 12:47:08;;;;;;;0.70;0.70;;;15.20;99.90;;;;;;5046719;28;20051;-78
2023/03/24 12:49:49;;;;;;;0.70;0.70;;;15.10;99.90;;;;;;5066909;28;20048;-77
2023/03/24 12:52:36;;;;;;;0.60;0.60;;;14.80;99.90;;;;;;5083540;28;20123;-79
2023/03/24 12:55:19;;;;;;;0.70;0.70;;;14.50;99.90;;;;;;5066804;28;20048;-77
2023/03/24 12:57:55;;;;;;;0.70;0.70;;;14.20;99.90;;;;;;5081553;28;20156;-79
2023/03/24 13:00:34;;;;;;;0.70;0.70;;;14.20;99.90;;;;;;5083914;28;20040;-77
2023/03/24 13:03:05;;;;;;;0.70;0.70;;;14.10;99.90;;;;;;5065941;28;20058;-78
2023/03/24 13:05:37;;;;;;;0.70;0.70;;;14.00;99.90;;;;;;5066506;28;20048;-78
2023/03/24 13:08:12;;;;;;;0.70;0.70;;;14.00;99.90;;;;;;5083014;28;20737;-78
2023/03/24 13:10:41;;;;;;;0.70;0.70;;;13.80;99.90;;;;;;5080472;28;20047;-77
2023/03/24 13:13:19;;;;;;;0.70;0.70;;;13.60;99.90;;;;;;5077791;28;20039;-75